createdAt,value
2023-05-21T00:02:30.126Z,43.63
2023-05-21T00:04:58.165Z,43.69
2023-05-21T00:07:26.098Z,43.90
2023-05-21T00:09:54.063Z,44.03
2023-05-21T00:12:21.979Z,43.75
2023-05-21T00:14:49.860Z,44.00
2023-05-21T00:17:18.057Z,43.71
2023-05-21T00:19:47.773Z,43.97
2023-05-21T00:22:16.022Z,43.98
2023-05-21T00:24:45.478Z,44.19
2023-05-21T00:27:13.452Z,44.15
2023-05-21T00:29:42.925Z,44.21
2023-05-21T00:32:12.115Z,44.40
2023-05-21T00:34:40.764Z,44.42
2023-05-21T00:37:10.829Z,44.27
2023-05-21T00:39:38.741Z,44.54
2023-05-21T00:42:06.751Z,44.31
2023-05-21T00:44:35.454Z,44.52
2023-05-21T00:47:03.415Z,44.16
2023-05-21T00:49:31.364Z,44.52
2023-05-21T00:52:01.476Z,44.45
2023-05-21T00:54:31.309Z,44.30
2023-05-21T00:56:59.177Z,44.41
2023-05-21T00:59:27.033Z,44.45
2023-05-21T01:01:56.400Z,44.50
2023-05-21T01:04:24.408Z,44.49
2023-05-21T01:06:53.523Z,44.36
2023-05-21T01:09:21.555Z,44.66
2023-05-21T01:11:51.539Z,44.60
2023-05-21T01:14:19.800Z,44.67
2023-05-21T01:16:49.357Z,44.75
2023-05-21T01:19:18.182Z,44.79
2023-05-21T01:21:47.192Z,44.79
2023-05-21T01:24:16.766Z,44.87
2023-05-21T01:26:46.601Z,44.74
2023-05-21T01:29:14.710Z,44.94
2023-05-21T01:31:55.613Z,44.91
2023-05-21T01:34:25.438Z,45.03
2023-05-21T01:36:57.043Z,45.25
2023-05-21T01:39:28.275Z,45.04
2023-05-21T01:41:56.264Z,45.14
2023-05-21T01:44:25.366Z,45.14
2023-05-21T01:46:53.955Z,45.33
2023-05-21T01:49:22.153Z,45.08
2023-05-21T01:51:50.159Z,45.08
2023-05-21T01:54:18.034Z,45.13
2023-05-21T01:56:47.964Z,45.25
2023-05-21T01:59:17.243Z,45.11
2023-05-21T02:01:45.183Z,45.20
2023-05-21T02:04:13.193Z,45.09
2023-05-21T02:06:41.848Z,45.01
2023-05-21T02:09:09.864Z,45.06
2023-05-21T02:11:37.764Z,45.10
2023-05-21T02:14:08.034Z,45.04
2023-05-21T02:16:35.985Z,45.16
2023-05-21T02:19:04.807Z,45.21
2023-05-21T02:21:32.752Z,45.27
2023-05-21T02:24:00.681Z,45.04
2023-05-21T02:26:29.025Z,45.26
2023-05-21T02:28:56.960Z,45.23
2023-05-21T02:31:26.296Z,45.28
2023-05-21T02:33:54.270Z,45.17
2023-05-21T02:36:22.174Z,45.44
2023-05-21T02:38:50.100Z,45.38
2023-05-21T02:41:18.012Z,45.64
2023-05-21T02:43:45.959Z,45.56
2023-05-21T02:46:13.901Z,45.44
2023-05-21T02:48:43.203Z,45.55
2023-05-21T02:51:11.525Z,45.61
2023-05-21T02:53:40.193Z,45.71
2023-05-21T02:56:08.492Z,45.89
2023-05-21T02:58:36.423Z,45.92
2023-05-21T03:01:04.367Z,46.13
2023-05-21T03:03:32.457Z,45.88
2023-05-21T03:06:01.915Z,45.96
2023-05-21T03:08:29.798Z,45.91
2023-05-21T03:10:57.820Z,46.05
2023-05-21T03:13:25.906Z,46.05
2023-05-21T03:15:56.528Z,45.93
2023-05-21T03:18:24.455Z,46.17
2023-05-21T03:20:52.326Z,46.17
2023-05-21T03:23:21.553Z,46.53
2023-05-21T03:25:50.878Z,46.72
2023-05-21T03:28:19.794Z,46.55
2023-05-21T03:30:49.761Z,46.59
2023-05-21T03:33:17.716Z,46.44
2023-05-21T03:35:45.839Z,46.41
2023-05-21T03:38:13.876Z,46.47
2023-05-21T03:40:43.251Z,46.63
2023-05-21T03:43:11.157Z,46.31
2023-05-21T03:45:39.890Z,46.38
2023-05-21T03:48:09.498Z,46.53
2023-05-21T03:50:37.599Z,46.39
2023-05-21T03:53:05.545Z,46.42
2023-05-21T03:55:33.551Z,46.37
2023-05-21T03:58:03.407Z,46.38
2023-05-21T04:00:32.642Z,46.29
2023-05-21T04:03:00.754Z,46.40
2023-05-21T04:05:28.750Z,46.44
2023-05-21T04:07:58.773Z,46.54
2023-05-21T04:10:27.033Z,46.63
2023-05-21T04:12:54.976Z,46.53
2023-05-21T04:15:24.544Z,46.53
2023-05-21T04:17:52.609Z,46.83
2023-05-21T04:20:20.639Z,46.79
2023-05-21T04:22:48.523Z,46.95
2023-05-21T04:25:16.485Z,46.93
2023-05-21T04:27:47.821Z,47.02
2023-05-21T04:30:15.835Z,47.09
2023-05-21T04:32:48.256Z,46.87
2023-05-21T04:35:16.338Z,47.06
2023-05-21T04:37:45.951Z,47.03
2023-05-21T04:40:18.190Z,47.05
2023-05-21T04:42:46.706Z,47.13
2023-05-21T04:45:14.757Z,47.15
2023-05-21T04:47:46.201Z,47.17
2023-05-21T04:50:14.093Z,47.09
2023-05-21T04:52:42.208Z,47.05
2023-05-21T04:55:10.426Z,47.13
2023-05-21T04:57:38.486Z,47.16
2023-05-21T05:00:08.669Z,47.28
2023-05-21T05:02:36.767Z,47.27
2023-05-21T05:05:06.820Z,47.45
2023-05-21T05:07:34.725Z,47.37
2023-05-21T05:10:02.635Z,47.53
2023-05-21T05:12:30.504Z,47.53
2023-05-21T05:14:58.382Z,47.50
2023-05-21T05:17:26.342Z,47.59
2023-05-21T05:19:54.288Z,47.58
2023-05-21T05:22:23.672Z,47.61
2023-05-21T05:24:51.589Z,47.41
2023-05-21T05:27:19.555Z,47.29
2023-05-21T05:29:47.925Z,47.31
2023-05-21T05:32:15.932Z,47.17
2023-05-21T05:34:44.064Z,47.26
2023-05-21T05:37:11.960Z,47.00
2023-05-21T05:39:41.219Z,46.94
2023-05-21T05:42:09.084Z,46.65
2023-05-21T05:44:37.019Z,47.03
2023-05-21T05:47:09.227Z,47.09
2023-05-21T05:49:37.129Z,47.12
2023-05-21T05:52:05.759Z,47.02
2023-05-21T05:54:33.631Z,47.48
2023-05-21T05:57:02.903Z,47.24
2023-05-21T05:59:30.865Z,47.57
2023-05-21T06:01:58.833Z,47.47
2023-05-21T06:04:29.946Z,47.42
2023-05-21T06:06:58.580Z,47.32
2023-05-21T06:09:26.540Z,47.65
2023-05-21T06:11:54.524Z,47.59
2023-05-21T06:14:23.808Z,47.33
2023-05-21T06:16:51.701Z,47.40
2023-05-21T06:19:20.164Z,47.64
2023-05-21T06:21:48.561Z,47.35
2023-05-21T06:24:16.676Z,47.48
2023-05-21T06:26:44.596Z,47.17
2023-05-21T06:29:14.856Z,47.23
2023-05-21T06:31:44.847Z,47.30
2023-05-21T06:34:12.930Z,47.10
2023-05-21T06:36:41.184Z,47.08
2023-05-21T06:39:09.107Z,46.97
2023-05-21T06:41:38.157Z,47.05
2023-05-21T06:44:06.512Z,46.98
2023-05-21T06:46:35.534Z,46.40
2023-05-21T06:49:07.061Z,46.55
2023-05-21T06:51:35.066Z,46.20
2023-05-21T06:54:03.107Z,46.33
2023-05-21T06:56:31.069Z,45.91
2023-05-21T06:58:59.406Z,46.03
2023-05-21T07:01:27.699Z,45.72
2023-05-21T07:03:55.768Z,45.56
2023-05-21T07:06:25.093Z,45.48
2023-05-21T07:08:53.051Z,45.35
2023-05-21T07:11:21.557Z,44.97
2023-05-21T07:13:49.485Z,44.96
2023-05-21T07:16:18.019Z,44.81
2023-05-21T07:18:46.114Z,44.30
2023-05-21T07:21:14.065Z,44.30
2023-05-21T07:23:43.304Z,43.95
2023-05-21T07:26:11.416Z,44.01
2023-05-21T07:28:39.350Z,43.63
2023-05-21T07:31:08.454Z,43.42
2023-05-21T07:33:36.489Z,43.19
2023-05-21T07:36:04.673Z,43.20
2023-05-21T07:38:32.621Z,42.72
2023-05-21T07:41:01.959Z,42.57
2023-05-21T07:43:30.042Z,42.15
2023-05-21T07:45:57.923Z,42.10
2023-05-21T07:48:27.015Z,42.00
2023-05-21T07:50:56.540Z,41.97
2023-05-21T07:53:24.480Z,41.69
2023-05-21T07:55:52.472Z,40.54
2023-05-21T07:58:21.798Z,39.65
2023-05-21T08:00:51.198Z,39.78
2023-05-21T08:03:19.718Z,39.70
2023-05-21T08:05:49.463Z,39.37
2023-05-21T08:08:17.451Z,39.05
2023-05-21T08:10:45.456Z,38.74
2023-05-21T08:13:13.418Z,38.68
2023-05-21T08:15:42.848Z,38.18
2023-05-21T08:18:12.034Z,38.56
2023-05-21T08:20:40.068Z,37.61
2023-05-21T08:23:08.009Z,37.03
2023-05-21T08:25:36.169Z,37.00
2023-05-21T08:28:04.472Z,37.27
2023-05-21T08:30:32.351Z,37.10
2023-05-21T08:33:02.366Z,37.05
2023-05-21T08:35:30.485Z,36.91
2023-05-21T08:37:58.816Z,36.65
2023-05-21T08:40:26.817Z,36.69
2023-05-21T08:42:54.878Z,36.20
2023-05-21T08:45:23.443Z,36.15
2023-05-21T08:47:56.053Z,36.07
2023-05-21T08:50:27.210Z,36.06
2023-05-21T08:52:57.716Z,36.34
2023-05-21T08:55:26.961Z,36.30
2023-05-21T08:57:55.174Z,35.95
2023-05-21T09:00:24.302Z,35.20
2023-05-21T09:02:54.527Z,35.46
2023-05-21T09:05:22.831Z,35.70
2023-05-21T09:08:03.497Z,35.43
2023-05-21T09:10:35.287Z,34.94
2023-05-21T09:13:03.228Z,34.76
2023-05-21T09:15:31.569Z,34.70
2023-05-21T09:17:59.584Z,34.92
2023-05-21T09:20:27.826Z,33.51
2023-05-21T09:22:57.326Z,34.29
2023-05-21T09:25:28.170Z,33.58
2023-05-21T09:27:56.629Z,32.97
2023-05-21T09:30:34.835Z,32.64
2023-05-21T09:33:04.059Z,32.37
2023-05-21T09:35:32.014Z,32.04
2023-05-21T09:38:01.947Z,31.66
2023-05-21T09:40:29.873Z,30.79
2023-05-21T09:42:57.807Z,30.53
2023-05-21T09:45:26.220Z,30.80
2023-05-21T09:47:54.812Z,30.85
2023-05-21T09:50:23.300Z,30.91
2023-05-21T09:52:53.104Z,30.41
2023-05-21T09:55:24.016Z,30.55
2023-05-21T09:57:52.145Z,30.86
2023-05-21T10:00:21.340Z,30.70
2023-05-21T10:02:49.673Z,30.14
2023-05-21T10:05:18.427Z,29.54
2023-05-21T10:07:48.656Z,28.67
2023-05-21T10:10:17.079Z,28.38
2023-05-21T10:12:47.719Z,29.22
2023-05-21T10:15:17.454Z,28.06
2023-05-21T10:17:46.251Z,27.78
2023-05-21T10:20:14.599Z,27.87
2023-05-21T10:22:42.550Z,28.08
2023-05-21T10:25:10.596Z,28.26
2023-05-21T10:27:38.509Z,27.65
2023-05-21T10:30:08.708Z,26.99
2023-05-21T10:32:36.977Z,25.75
2023-05-21T10:35:05.857Z,25.90
2023-05-21T10:37:33.809Z,26.57
2023-05-21T10:40:02.281Z,26.01
2023-05-21T10:43:15.262Z,25.43
2023-05-21T10:45:55.198Z,25.49
2023-05-21T10:48:34.494Z,25.18
2023-05-21T10:51:29.110Z,24.59
2023-05-21T10:54:18.360Z,25.36
2023-05-21T10:56:48.336Z,25.78
2023-05-21T10:59:23.158Z,25.54
2023-05-21T11:01:53.708Z,25.59
2023-05-21T11:04:26.652Z,25.47
2023-05-21T11:06:54.961Z,24.57
2023-05-21T11:09:23.122Z,24.71
2023-05-21T11:11:52.427Z,25.14
2023-05-21T11:14:32.004Z,25.09
2023-05-21T11:17:02.087Z,24.84
2023-05-21T11:19:39.664Z,24.75
2023-05-21T11:22:11.922Z,25.51
2023-05-21T11:24:41.363Z,25.47
2023-05-21T11:27:09.852Z,25.68
2023-05-21T11:29:42.118Z,26.28
2023-05-21T11:32:12.361Z,25.44
2023-05-21T11:34:42.052Z,24.80
2023-05-21T11:37:46.136Z,24.40
2023-05-21T11:40:30.935Z,24.67
2023-05-21T11:42:58.967Z,23.84
2023-05-21T11:45:31.013Z,25.48
2023-05-21T11:48:00.685Z,25.69
2023-05-21T11:50:30.689Z,25.96
2023-05-21T11:52:59.893Z,25.97
2023-05-21T11:55:27.939Z,25.35
2023-05-21T11:57:56.521Z,24.02
2023-05-21T12:00:24.640Z,22.96
2023-05-21T12:02:53.453Z,22.87
2023-05-21T12:05:23.685Z,22.42
2023-05-21T12:07:51.630Z,23.01
2023-05-21T12:10:22.585Z,23.30
2023-05-21T12:12:55.529Z,23.34
2023-05-21T12:15:26.036Z,22.72
2023-05-21T12:17:54.295Z,21.96
2023-05-21T12:20:23.898Z,22.09
2023-05-21T12:22:52.057Z,21.97
2023-05-21T12:25:21.206Z,21.72
2023-05-21T12:27:50.290Z,21.20
2023-05-21T12:30:18.251Z,21.33
2023-05-21T12:32:46.162Z,20.19
2023-05-21T12:35:23.965Z,20.50
2023-05-21T12:37:52.705Z,20.25
2023-05-21T12:40:21.053Z,20.88
2023-05-21T12:42:49.481Z,21.10
2023-05-21T12:45:18.790Z,20.65
2023-05-21T12:47:49.906Z,20.66
2023-05-21T12:50:18.102Z,20.43
2023-05-21T12:52:47.404Z,19.24
2023-05-21T12:55:16.750Z,19.19
2023-05-21T12:57:44.846Z,20.13
2023-05-21T13:00:14.395Z,20.36
2023-05-21T13:02:43.549Z,19.90
2023-05-21T13:05:17.451Z,19.38
2023-05-21T13:07:47.597Z,19.17
2023-05-21T13:10:17.677Z,19.24
2023-05-21T13:12:46.119Z,19.68
2023-05-21T13:15:14.431Z,19.49
2023-05-21T13:17:42.579Z,18.39
2023-05-21T13:20:12.524Z,18.61
2023-05-21T13:22:42.591Z,18.46
2023-05-21T13:25:11.184Z,18.46
2023-05-21T13:27:41.927Z,18.94
2023-05-21T13:30:11.779Z,19.80
2023-05-21T13:32:40.797Z,20.57
2023-05-21T13:35:10.163Z,21.10
2023-05-21T13:37:38.156Z,21.32
2023-05-21T13:40:07.351Z,21.61
2023-05-21T13:42:35.563Z,21.64
2023-05-21T13:45:05.380Z,21.38
2023-05-21T13:47:33.594Z,21.56
2023-05-21T13:50:01.640Z,21.64
2023-05-21T13:52:29.838Z,21.76
2023-05-21T13:54:57.711Z,21.87
2023-05-21T13:57:26.860Z,21.38
2023-05-21T13:59:54.818Z,21.13
2023-05-21T14:02:24.301Z,21.11
2023-05-21T14:04:52.370Z,21.23
2023-05-21T14:07:20.340Z,21.07
2023-05-21T14:09:48.724Z,20.94
2023-05-21T14:12:16.994Z,20.97
2023-05-21T14:14:45.057Z,20.56
2023-05-21T14:17:13.046Z,20.54
2023-05-21T14:19:42.501Z,20.27
2023-05-21T14:22:10.437Z,20.24
2023-05-21T14:24:38.343Z,20.23
2023-05-21T14:27:06.661Z,20.01
2023-05-21T14:29:34.640Z,19.97
2023-05-21T14:32:02.707Z,19.91
2023-05-21T14:34:30.753Z,19.61
2023-05-21T14:37:00.510Z,19.79
2023-05-21T14:39:28.605Z,19.74
2023-05-21T14:41:56.584Z,19.67
2023-05-21T14:44:24.828Z,19.76
2023-05-21T14:46:52.837Z,19.57
2023-05-21T14:49:20.832Z,19.15
2023-05-21T14:51:49.443Z,19.34
2023-05-21T14:54:18.791Z,19.19
2023-05-21T14:56:46.734Z,19.09
2023-05-21T14:59:14.654Z,19.05
2023-05-21T15:01:42.737Z,19.13
2023-05-21T15:04:11.158Z,18.73
2023-05-21T15:06:39.224Z,18.78
2023-05-21T15:09:07.169Z,18.79
2023-05-21T15:11:36.463Z,18.09
2023-05-21T15:14:04.386Z,17.83
2023-05-21T15:16:32.411Z,17.40
2023-05-21T15:19:00.397Z,17.49
2023-05-21T15:21:28.402Z,17.77
2023-05-21T15:23:56.385Z,18.32
2023-05-21T15:26:25.601Z,17.97
2023-05-21T15:28:54.904Z,17.79
2023-05-21T15:31:22.904Z,18.01
2023-05-21T15:33:50.788Z,17.98
2023-05-21T15:36:18.701Z,18.21
2023-05-21T15:38:46.786Z,17.73
2023-05-21T15:41:14.675Z,17.81
2023-05-21T15:43:43.401Z,18.18
2023-05-21T15:46:12.932Z,18.35
2023-05-21T15:48:41.311Z,18.32
2023-05-21T15:51:09.573Z,18.46
2023-05-21T15:53:37.640Z,18.86
2023-05-21T15:56:05.808Z,18.43
2023-05-21T15:58:33.870Z,18.43
2023-05-21T16:01:01.856Z,18.27
2023-05-21T16:03:31.224Z,18.46
2023-05-21T16:05:59.149Z,18.64
2023-05-21T16:08:27.162Z,18.20
2023-05-21T16:10:55.246Z,17.91
2023-05-21T16:13:23.167Z,18.00
2023-05-21T16:15:51.771Z,18.02
2023-05-21T16:18:19.654Z,18.49
2023-05-21T16:20:49.444Z,19.17
2023-05-21T16:23:17.401Z,19.88
2023-05-21T16:25:45.347Z,20.11
2023-05-21T16:28:13.466Z,20.36
2023-05-21T16:30:41.385Z,20.60
2023-05-21T16:33:10.058Z,20.74
2023-05-21T16:35:38.362Z,21.02
2023-05-21T16:38:24.248Z,20.91
2023-05-21T16:40:53.556Z,20.96
2023-05-21T16:43:25.464Z,21.25
2023-05-21T16:45:54.049Z,21.01
2023-05-21T16:48:25.499Z,21.47
2023-05-21T16:50:53.448Z,21.59
2023-05-21T16:53:22.723Z,21.25
2023-05-21T16:55:50.736Z,21.36
2023-05-21T16:58:19.108Z,21.43
2023-05-21T17:00:47.413Z,21.34
2023-05-21T17:03:16.049Z,21.50
2023-05-21T17:05:44.401Z,21.32
2023-05-21T17:08:12.597Z,21.55
2023-05-21T17:10:41.990Z,21.90
2023-05-21T17:13:21.618Z,21.87
2023-05-21T17:15:51.611Z,22.92
2023-05-21T17:18:19.577Z,23.28
2023-05-21T17:20:47.580Z,23.82
2023-05-21T17:23:15.715Z,23.78
2023-05-21T17:25:45.026Z,24.30
2023-05-21T17:28:12.905Z,24.47
2023-05-21T17:30:40.948Z,25.10
2023-05-21T17:33:10.385Z,25.17
2023-05-21T17:35:39.004Z,25.53
2023-05-21T17:38:07.496Z,25.39
2023-05-21T17:40:35.619Z,26.10
2023-05-21T17:43:07.331Z,26.22
2023-05-21T17:45:35.985Z,26.22
2023-05-21T17:48:04.524Z,26.54
2023-05-21T17:50:32.577Z,26.95
2023-05-21T17:53:00.817Z,27.10
2023-05-21T17:55:28.785Z,28.05
2023-05-21T17:57:56.904Z,28.58
2023-05-21T18:00:26.738Z,28.74
2023-05-21T18:02:55.159Z,28.86
2023-05-21T18:05:23.690Z,28.93
2023-05-21T18:07:51.564Z,28.80
2023-05-21T18:10:19.451Z,28.86
2023-05-21T18:12:50.379Z,28.70
2023-05-21T18:15:18.538Z,28.85
2023-05-21T18:17:47.976Z,28.73
2023-05-21T18:20:16.476Z,29.27
2023-05-21T18:22:45.632Z,28.76
2023-05-21T18:25:13.501Z,28.72
2023-05-21T18:27:41.400Z,28.82
2023-05-21T18:30:10.666Z,28.89
2023-05-21T18:32:39.542Z,29.20
2023-05-21T18:35:11.979Z,29.76
2023-05-21T18:37:44.780Z,29.86
2023-05-21T18:40:13.860Z,29.97
2023-05-21T18:42:41.869Z,30.30
2023-05-21T18:45:11.218Z,30.66
2023-05-21T18:47:40.423Z,30.85
2023-05-21T18:50:11.945Z,31.63
2023-05-21T18:52:40.376Z,31.73
2023-05-21T18:55:09.151Z,31.84
2023-05-21T18:57:38.175Z,32.01
2023-05-21T19:00:09.496Z,31.99
2023-05-21T19:02:37.743Z,32.83
2023-05-21T19:05:06.576Z,33.17
2023-05-21T19:07:36.322Z,32.99
2023-05-21T19:10:04.463Z,32.74
2023-05-21T19:12:32.413Z,32.56
2023-05-21T19:15:00.426Z,32.49
2023-05-21T19:17:28.397Z,32.43
2023-05-21T19:19:56.801Z,32.55
2023-05-21T19:22:24.984Z,32.67
2023-05-21T19:24:54.393Z,32.66
2023-05-21T19:27:22.311Z,33.09
2023-05-21T19:29:50.216Z,33.14
2023-05-21T19:32:18.195Z,33.10
2023-05-21T19:34:46.890Z,34.05
2023-05-21T19:37:14.966Z,34.65
2023-05-21T19:39:43.501Z,35.45
2023-05-21T19:42:13.179Z,35.48
2023-05-21T19:44:41.372Z,35.41
2023-05-21T19:47:09.538Z,35.71
2023-05-21T19:49:37.696Z,36.46
2023-05-21T19:52:06.245Z,37.23
2023-05-21T19:54:34.215Z,37.40
2023-05-21T19:57:02.256Z,37.82
2023-05-21T19:59:31.703Z,37.82
2023-05-21T20:01:59.695Z,38.02
2023-05-21T20:04:28.170Z,38.88
2023-05-21T20:06:56.133Z,39.02
2023-05-21T20:09:24.096Z,39.29
2023-05-21T20:11:52.535Z,39.61
2023-05-21T20:14:20.799Z,40.05
2023-05-21T20:16:50.347Z,40.63
2023-05-21T20:19:18.679Z,40.60
2023-05-21T20:21:46.796Z,40.95
2023-05-21T20:24:14.922Z,40.92
2023-05-21T20:26:45.091Z,40.80
2023-05-21T20:29:13.112Z,40.63
2023-05-21T20:31:42.035Z,40.67
2023-05-21T20:34:12.405Z,41.02
2023-05-21T20:36:41.515Z,40.84
2023-05-21T20:39:09.661Z,40.98
2023-05-21T20:41:38.768Z,41.01
2023-05-21T20:44:07.084Z,41.64
2023-05-21T20:46:38.567Z,41.43
2023-05-21T20:49:06.880Z,41.42
2023-05-21T20:51:36.191Z,41.67
2023-05-21T20:54:04.080Z,41.58
2023-05-21T20:56:41.929Z,41.28
2023-05-21T20:59:11.998Z,41.56
2023-05-21T21:01:40.744Z,41.12
2023-05-21T21:04:09.395Z,41.91
2023-05-21T21:06:40.545Z,42.02
2023-05-21T21:09:08.624Z,42.13
2023-05-21T21:11:36.955Z,41.76
2023-05-21T21:14:04.955Z,41.81
2023-05-21T21:16:33.228Z,42.01
2023-05-21T21:19:01.586Z,41.98
2023-05-21T21:21:29.687Z,41.98
2023-05-21T21:23:59.050Z,41.96
2023-05-21T21:26:27.272Z,42.42
2023-05-21T21:28:56.304Z,42.08
2023-05-21T21:31:24.741Z,42.07
2023-05-21T21:33:52.795Z,42.36
2023-05-21T21:36:20.826Z,42.51
2023-05-21T21:38:48.756Z,42.28
2023-05-21T21:41:19.464Z,42.28
2023-05-21T21:43:47.472Z,42.61
2023-05-21T21:46:15.501Z,42.89
2023-05-21T21:48:43.491Z,42.78
2023-05-21T21:51:11.671Z,43.11
2023-05-21T21:53:39.543Z,42.99
2023-05-21T21:56:07.722Z,43.14
2023-05-21T21:58:37.023Z,42.96
2023-05-21T22:01:04.982Z,43.06
2023-05-21T22:03:33.751Z,42.78
2023-05-21T22:06:02.000Z,43.24
2023-05-21T22:08:29.930Z,43.06
2023-05-21T22:10:58.869Z,42.95
2023-05-21T22:13:29.196Z,43.08
2023-05-21T22:15:59.355Z,42.96
2023-05-21T22:18:39.405Z,43.07
2023-05-21T22:21:10.028Z,42.93
2023-05-21T22:23:38.578Z,42.90
2023-05-21T22:26:06.737Z,42.84
2023-05-21T22:28:34.804Z,43.29
2023-05-21T22:31:04.298Z,43.30
2023-05-21T22:33:32.454Z,43.33
2023-05-21T22:36:00.464Z,43.07
2023-05-21T22:38:28.418Z,42.91
2023-05-21T22:40:56.352Z,42.77
2023-05-21T22:43:24.328Z,42.87
2023-05-21T22:45:52.258Z,43.24
2023-05-21T22:48:22.625Z,43.18
2023-05-21T22:50:53.414Z,43.17
2023-05-21T22:53:21.594Z,43.06
2023-05-21T22:55:49.608Z,43.27
2023-05-21T22:58:17.663Z,43.21
2023-05-21T23:00:45.648Z,43.03
2023-05-21T23:03:13.653Z,43.15
2023-05-21T23:05:43.172Z,43.26
2023-05-21T23:08:11.267Z,43.26
2023-05-21T23:10:39.447Z,43.21
2023-05-21T23:13:07.642Z,43.28
2023-05-21T23:15:38.755Z,43.30
2023-05-21T23:18:07.723Z,43.41
2023-05-21T23:20:37.153Z,43.41
2023-05-21T23:23:07.075Z,43.35
2023-05-21T23:25:35.418Z,43.10
2023-05-21T23:28:03.361Z,43.54
2023-05-21T23:30:31.266Z,43.21
2023-05-21T23:32:59.288Z,43.46
2023-05-21T23:35:27.346Z,43.42
2023-05-21T23:37:55.301Z,43.71
2023-05-21T23:40:24.591Z,43.51
2023-05-21T23:42:52.530Z,43.64
2023-05-21T23:45:20.557Z,43.52
2023-05-21T23:47:48.503Z,43.54
2023-05-21T23:50:16.592Z,43.73
2023-05-21T23:52:44.462Z,43.76
2023-05-21T23:55:14.688Z,43.42
2023-05-21T23:57:44.115Z,43.55
